Latest Weather Observations for Grafton Airport

IDN60801

Issued at 2:32 pm EST Friday 28 July 2017 (issued every 30 minutes, with the page automatically refreshed every 10 minutes)

About weather observations | Map of weather stations | Latest weather observations for NSW | Other Formats
Station Details ID: 058161 Name: GRAFTON AIRPORT AWS Lat: -29.76 Lon: 153.03 Height: 25.09 m
Data from the previous 72 hours. | See also: Recent months at Grafton Airport
Date/Time
EST
Temp
°C
App
Temp
°C
Dew
Point
°C
Rel
Hum
%
Delta-T
°C
Wind Press
QNH
hPa
Press
MSL
hPa
Rain since
9am
mm
Dir  Spd
km/h
Gust
km/h
Spd
kts
Gust
kts
28/02:30pm 22.7 20.6 8.4 40 7.6 N 9 13 5 7 1016.2 1016.2 0.0
28/02:00pm 22.3 20.2 8.1 40 7.5 NNW 9 17 5 9 1016.7 1016.7 0.0
28/01:30pm 21.9 19.6 7.3 39 7.5 NNW 9 15 5 8 1017.1 1017.1 0.0
28/01:00pm 21.2 18.8 8.5 44 6.7 NNW 11 17 6 9 1017.6 1017.6 0.0
28/12:30pm 20.2 18.2 8.8 48 6.0 NW 9 13 5 7 1018.4 1018.4 0.0
28/12:00pm 19.0 16.2 8.6 51 5.4 NNW 13 20 7 11 1019.0 1019.0 0.0
28/11:30am 18.2 15.8 8.5 53 5.0 NW 11 17 6 9 1019.9 1019.9 0.0
28/11:00am 17.6 15.8 7.9 53 4.9 NW 7 13 4 7 1020.7 1020.7 0.0
28/10:30am 16.2 15.0 9.6 65 3.4 N 6 11 3 6 1021.3 1021.3 0.0
28/10:00am 13.9 12.4 8.5 70 2.7 N 6 9 3 5 1021.8 1021.8 0.0
28/09:30am 12.6 10.9 8.5 76 2.0 NE 7 11 4 6 1022.1 1022.1 0.0
28/09:00am 10.4 9.6 8.2 86 1.1 NNW 2 7 1 4 1022.6 1022.6 0.0
28/08:30am 7.8 7.3 7.7 99 0.0 CALM 0 0 0 0 1022.7 1022.7 0.0
28/08:02am 5.8 4.4 5.7 99 0.0 SW 2 6 1 3 1022.6 1022.6 0.0
28/08:00am 5.8 4.4 5.7 99 0.0 SW 2 6 1 3 1022.6 1022.6 0.0
28/07:44am 4.9 3.3 4.6 98 0.1 SW 2 7 1 4 1022.5 1022.5 0.0
28/07:30am 4.4 2.3 4.1 98 0.1 WSW 4 7 2 4 1022.7 1022.7 0.0
28/07:00am 4.6 3.3 4.3 98 0.1 CALM 0 0 0 0 1022.4 1022.4 0.0
28/06:30am 4.3 1.8 3.9 97 0.2 ESE 6 9 3 5 1022.5 1022.5 0.0
28/06:00am 4.4 3.0 3.8 96 0.2 CALM 0 0 0 0 1022.5 1022.5 0.0
28/05:34am 4.9 3.6 4.3 96 0.3 CALM 0 0 0 0 1022.3 1022.3 0.0
28/05:30am 4.9 3.6 4.3 96 0.3 CALM 0 0 0 0 1022.2 1022.2 0.0
28/05:28am 4.6 3.3 4.0 96 0.3 CALM 0 0 0 0 1022.3 1022.3 0.0
28/05:19am 4.5 3.1 3.8 95 0.3 CALM 0 0 0 0 1022.2 1022.2 0.0
28/05:00am 4.8 3.5 4.2 96 0.3 CALM 0 0 0 0 1022.2 1022.2 0.0
28/04:55am 5.1 3.9 4.5 96 0.3 CALM 0 0 0 0 1022.3 1022.3 0.0
28/04:30am 5.7 4.6 5.3 97 0.2 CALM 0 0 0 0 1022.3 1022.3 0.0
28/04:00am 5.4 4.2 4.7 95 0.3 CALM 0 0 0 0 1022.3 1022.3 0.0
28/03:30am 5.6 4.1 4.9 95 0.3 SSW 2 7 1 4 1022.4 1022.4 0.0
28/03:00am 6.6 5.7 6.2 97 0.2 CALM 0 6 0 3 1022.7 1022.7 0.0
28/02:30am 7.0 6.2 6.4 96 0.3 CALM 0 0 0 0 1023.2 1023.2 0.0
28/02:29am 7.0 6.2 6.4 96 0.3 CALM 0 0 0 0 1023.2 1023.2 0.0
28/02:13am 6.6 5.7 6.0 96 0.3 CALM 0 0 0 0 1023.4 1023.4 0.0
28/02:00am 6.6 5.7 6.0 96 0.3 CALM 0 0 0 0 1023.5 1023.5 0.0
28/01:30am 6.7 5.8 6.1 96 0.3 CALM 0 0 0 0 1023.7 1023.7 0.0
28/01:00am 6.9 6.1 6.3 96 0.3 CALM 0 0 0 0 1024.1 1024.1 0.0
28/12:30am 7.2 6.4 6.6 96 0.3 CALM 0 0 0 0 1024.3 1024.3 0.0
28/12:00am 6.4 5.4 5.5 94 0.4 CALM 0 0 0 0 1024.6 1024.6 0.0
 
Date/Time
EST
Temp
°C
App
Temp
°C
Dew
Point
°C
Rel
Hum
%
Delta-T
°C
Wind Press
QNH
hPa
Press
MSL
hPa
Rain since
9am
mm
Dir  Spd
km/h
Gust
km/h
Spd
kts
Gust
kts
27/11:30pm 8.0 5.4 7.6 97 0.2 S 11 13 6 7 1024.2 1024.2 0.0
27/11:00pm 7.5 6.7 6.6 94 0.4 CALM 0 0 0 0 1024.5 1024.5 0.0
27/10:30pm 7.7 5.9 7.0 95 0.3 SSW 6 9 3 5 1024.4 1024.4 0.0
27/10:09pm 8.5 7.9 7.6 94 0.4 CALM 0 0 0 0 1024.3 1024.3 0.0
27/10:00pm 7.9 7.1 6.7 92 0.6 CALM 0 0 0 0 1024.3 1024.3 0.0
27/09:53pm 7.6 6.7 6.2 91 0.6 CALM 0 0 0 0 1024.2 1024.2 0.0
27/09:30pm 8.4 7.8 7.3 93 0.5 CALM 0 0 0 0 1024.1 1024.1 0.0
27/09:00pm 8.7 7.0 7.5 92 0.6 SSW 6 6 3 3 1024.3 1024.3 0.0
27/08:30pm 9.2 7.4 8.0 92 0.6 SSW 7 9 4 5 1024.4 1024.4 0.0
27/08:00pm 9.7 7.3 8.5 92 0.6 S 11 11 6 6 1024.4 1024.4 0.0
27/07:30pm 9.9 8.9 7.5 85 1.1 SSW 2 7 1 4 1024.3 1024.3 0.0
27/07:00pm 11.4 11.1 8.6 83 1.4 CALM 0 0 0 0 1024.0 1024.0 0.0
27/06:30pm 11.9 11.3 7.6 75 2.1 CALM 0 0 0 0 1023.8 1023.8 0.0
27/06:00pm 13.8 13.0 8.0 68 2.9 SE 2 6 1 3 1023.6 1023.6 0.0
27/05:30pm 15.4 13.8 8.6 64 3.5 ESE 7 9 4 5 1023.6 1023.6 0.0
27/05:00pm 16.3 14.2 8.3 59 4.0 ESE 9 13 5 7 1023.2 1023.2 0.0
27/04:30pm 17.4 14.4 7.7 53 4.9 ESE 13 19 7 10 1022.8 1022.8 0.0
27/04:00pm 18.4 15.6 6.9 47 5.7 SE 11 17 6 9 1023.0 1023.0 0.0
27/03:30pm 19.5 16.5 5.9 41 6.7 E 11 17 6 9 1022.9 1022.9 0.0
27/03:00pm 19.9 16.2 4.4 36 7.4 ENE 13 19 7 10 1022.9 1022.9 0.0
27/02:30pm 19.9 16.4 3.6 34 7.7 ESE 11 17 6 9 1022.6 1022.6 0.0
27/02:00pm 20.0 16.6 4.1 35 7.6 E 11 19 6 10 1022.6 1022.6 0.0
27/01:30pm 19.7 15.7 2.6 32 7.9 SE 13 17 7 9 1022.6 1022.6 0.0
27/01:00pm 19.7 16.0 2.6 32 7.9 ESE 11 19 6 10 1022.8 1022.8 0.0
27/12:30pm 20.4 17.5 4.4 35 7.7 ENE 9 15 5 8 1023.2 1023.2 0.0
27/12:00pm 19.1 16.8 4.8 39 6.9 SW 6 9 3 5 1023.9 1023.9 0.0
27/11:30am 18.4 15.2 4.9 41 6.5 S 11 17 6 9 1024.5 1024.5 0.0
27/11:00am 17.7 14.7 3.9 40 6.4 SSE 9 15 5 8 1024.9 1024.9 0.0
27/10:30am 17.4 14.9 3.7 40 6.4 WSW 6 9 3 5 1025.0 1025.0 0.0
27/10:00am 15.5 13.0 4.8 49 5.0 WSW 7 9 4 5 1025.3 1025.3 0.0
27/09:30am 13.5 11.6 6.8 64 3.2 SW 6 7 3 4 1025.3 1025.3 0.0
27/09:00am 11.1 9.7 5.6 69 2.5 WSW 2 7 1 4 1025.1 1025.1 0.2
27/08:30am 8.4 6.3 5.9 84 1.1 N 6 7 3 4 1024.9 1024.9 0.2
27/08:00am 6.2 5.0 4.5 89 0.7 CALM 0 0 0 0 1024.6 1024.6 0.2
27/07:30am 4.8 1.8 4.2 96 0.3 S 9 11 5 6 1024.1 1024.1 0.2
27/07:00am 2.9 -0.4 2.2 95 0.3 SSW 9 11 5 6 1023.9 1023.9 0.2
27/06:30am 2.6 0.5 1.6 93 0.4 SSW 2 9 1 5 1023.4 1023.4 0.2
27/06:00am 3.2 0.8 2.2 93 0.4 S 4 7 2 4 1023.0 1023.0 0.2
27/05:30am 2.7 0.6 1.5 92 0.5 ENE 2 7 1 4 1022.5 1022.5 0.2
27/05:00am 3.5 1.9 2.3 92 0.5 CALM 0 0 0 0 1022.1 1022.1 0.2
27/04:30am 4.1 2.5 2.6 90 0.6 CALM 0 0 0 0 1021.9 1021.9 0.2
27/04:00am 4.2 2.6 2.4 88 0.7 CALM 0 0 0 0 1021.8 1021.8 0.2
27/03:30am 5.2 3.8 3.7 90 0.6 CALM 0 0 0 0 1021.6 1021.6 0.2
27/03:00am 6.0 3.3 3.8 86 0.9 SSW 7 9 4 5 1021.4 1021.4 0.2
27/02:30am 5.3 1.8 3.6 89 0.7 SSW 11 15 6 8 1021.2 1021.2 0.2
27/02:00am 5.7 2.9 3.2 84 1.0 SSW 7 9 4 5 1021.1 1021.1 0.2
27/01:30am 6.2 4.8 3.7 84 1.1 CALM 0 6 0 3 1021.1 1021.1 0.2
27/01:00am 6.8 5.1 3.8 81 1.3 ESE 2 9 1 5 1021.0 1021.0 0.2
27/12:30am 6.2 4.4 3.4 82 1.2 SW 2 6 1 3 1020.6 1020.6 0.2
27/12:00am 6.8 5.1 3.9 82 1.2 SW 2 9 1 5 1020.5 1020.5 0.2
 
Date/Time
EST
Temp
°C
App
Temp
°C
Dew
Point
°C
Rel
Hum
%
Delta-T
°C
Wind Press
QNH
hPa
Press
MSL
hPa
Rain since
9am
mm
Dir  Spd
km/h
Gust
km/h
Spd
kts
Gust
kts
26/11:30pm 7.5 4.6 4.5 81 1.3 SSW 9 15 5 8 1020.4 1020.4 0.2
26/11:00pm 8.0 5.7 4.8 80 1.4 WSW 6 9 3 5 1020.2 1020.2 0.2
26/10:30pm 8.9 7.3 4.5 74 1.9 SW 2 6 1 3 1020.3 1020.3 0.2
26/10:00pm 9.6 8.1 5.0 73 2.1 NNW 2 7 1 4 1020.2 1020.2 0.2
26/09:30pm 9.8 7.1 5.4 74 2.0 SSW 9 13 5 7 1019.8 1019.8 0.2
26/09:00pm 11.2 8.8 5.3 67 2.7 S 7 9 4 5 1019.5 1019.5 0.2
26/08:30pm 11.5 9.1 5.2 65 2.9 S 7 9 4 5 1019.3 1019.3 0.2
26/08:00pm 12.2 9.7 4.9 61 3.3 SW 7 9 4 5 1018.8 1018.8 0.2
26/07:30pm 14.3 11.8 3.5 48 4.9 ESE 6 9 3 5 1019.0 1019.0 0.2
26/07:00pm 18.1 15.8 2.8 36 7.0 SSW 4 6 2 3 1018.4 1018.4 0.2
26/06:30pm 18.2 16.6 2.5 35 7.2 CALM 0 0 0 0 1017.9 1017.9 0.2
26/06:00pm 19.2 16.8 2.1 32 7.8 N 4 9 2 5 1017.6 1017.6 0.2
26/05:30pm 19.6 16.8 2.0 31 8.1 N 6 9 3 5 1017.2 1017.2 0.2
26/05:00pm 21.8 18.8 2.0 27 9.2 NNW 7 13 4 7 1017.1 1017.1 0.2
26/04:30pm 23.7 20.3 2.0 24 10.3 NNW 9 15 5 8 1016.9 1016.9 0.2
26/04:00pm 25.0 21.6 1.8 22 11.0 NW 9 20 5 11 1016.6 1016.6 0.2
26/03:30pm 25.2 21.4 2.0 22 11.1 WNW 11 20 6 11 1016.6 1016.6 0.2
26/03:00pm 25.1 21.8 4.3 26 10.4 NNW 11 20 6 11 1016.6 1016.6 0.2
26/02:30pm 24.4 20.5 5.2 29 9.7 N 15 22 8 12 1016.8 1016.8 0.2
26/02:00pm 24.6 21.9 5.4 29 9.7 NNW 9 17 5 9 1017.2 1017.2 0.2
26/01:30pm 23.7 20.6 5.6 31 9.2 NW 11 19 6 10 1017.5 1017.5 0.2
26/01:00pm 23.4 20.4 6.2 33 8.8 NNW 11 20 6 11 1017.9 1017.9 0.2
26/12:30pm 22.5 19.5 5.9 34 8.4 NNW 11 19 6 10 1018.4 1018.4 0.2
26/12:00pm 21.6 18.4 6.7 38 7.6 NNW 13 17 7 9 1019.0 1019.0 0.2
26/11:30am 20.8 17.6 5.2 36 7.7 NNW 11 15 6 8 1019.7 1019.7 0.2
26/11:00am 19.6 17.2 7.0 44 6.4 N 9 11 5 6 1020.3 1020.3 0.2
26/10:30am 17.1 14.4 7.2 52 4.9 N 11 15 6 8 1021.0 1021.0 0.2
26/10:00am 15.0 13.2 7.3 60 3.8 ENE 6 7 3 4 1021.5 1021.5 0.0
26/09:30am 12.6 10.8 7.1 69 2.7 N 6 9 3 5 1021.7 1021.7 0.0
26/09:00am 10.1 8.1 6.4 78 1.7 N 6 9 3 5 1022.0 1022.0 0.0
26/08:30am 8.5 7.5 7.3 92 0.6 NNE 2 7 1 4 1022.1 1022.1 0.0
26/08:00am 6.1 5.2 6.0 99 0.0 CALM 0 0 0 0 1022.0 1022.0 0.0
26/07:30am 4.0 2.7 3.9 99 0.0 CALM 0 0 0 0 1022.0 1022.0 0.0
26/07:00am 2.5 0.4 1.9 96 0.2 SSE 2 7 1 4 1021.7 1021.7 0.0
26/06:30am 1.9 0.1 1.3 96 0.2 CALM 0 0 0 0 1021.8 1021.8 0.0
26/06:00am 2.9 1.3 2.5 97 0.2 CALM 0 0 0 0 1021.7 1021.7 0.0
26/05:30am 2.7 1.0 2.1 96 0.2 CALM 0 0 0 0 1021.6 1021.6 0.0
26/05:11am 2.4 0.7 1.7 95 0.3 CALM 0 0 0 0 1021.6 1021.6 0.0
26/05:00am 2.3 0.6 1.6 95 0.3 CALM 0 0 0 0 1021.5 1021.5 0.0
26/04:49am 2.7 1.0 2.1 96 0.2 CALM 0 0 0 0 1021.5 1021.5 0.0
26/04:30am 3.0 1.4 2.4 96 0.2 CALM 0 0 0 0 1021.5 1021.5 0.0
26/04:00am 3.2 1.6 2.6 96 0.2 CALM 0 0 0 0 1021.5 1021.5 0.0
26/03:30am 3.6 2.1 3.0 96 0.2 CALM 0 0 0 0 1021.7 1021.7 0.0
26/03:00am 3.9 1.1 3.3 96 0.2 SSW 7 11 4 6 1022.0 1022.0 0.0
26/02:30am 4.2 2.8 3.5 95 0.3 CALM 0 0 0 0 1022.0 1022.0 0.0
26/02:00am 4.5 3.2 3.9 96 0.2 CALM 0 0 0 0 1022.0 1022.0 0.0
26/01:58am 4.6 3.3 4.0 96 0.3 CALM 0 0 0 0 1022.0 1022.0 0.0
26/01:30am 5.0 3.7 4.3 95 0.3 CALM 0 0 0 0 1022.2 1022.2 0.0
26/01:00am 5.2 3.9 4.3 94 0.4 CALM 0 0 0 0 1022.4 1022.4 0.0
26/12:54am 5.0 3.7 4.1 94 0.4 CALM 0 0 0 0 1022.4 1022.4 0.0
26/12:30am 5.6 4.5 4.9 95 0.3 CALM 0 0 0 0 1022.4 1022.4 0.0
26/12:00am 6.3 5.3 5.6 95 0.3 CALM 0 0 0 0 1022.3 1022.3 0.0
 
Date/Time
EST
Temp
°C
App
Temp
°C
Dew
Point
°C
Rel
Hum
%
Delta-T
°C
Wind Press
QNH
hPa
Press
MSL
hPa
Rain since
9am
mm
Dir  Spd
km/h
Gust
km/h
Spd
kts
Gust
kts
25/11:30pm 6.1 4.6 5.2 94 0.4 S 2 7 1 4 1022.5 1022.5 0.0
25/11:16pm 6.4 5.4 5.4 93 0.4 CALM 0 0 0 0 1022.5 1022.5 0.0
25/11:00pm 5.9 4.7 4.5 91 0.6 CALM 0 0 0 0 1022.5 1022.5 0.0
25/10:42pm 6.4 5.2 4.7 89 0.7 CALM 0 6 0 3 1022.5 1022.5 0.0
25/10:30pm 7.8 6.3 6.9 94 0.4 SSW 4 6 2 3 1022.5 1022.5 0.0
25/10:00pm 7.5 5.5 6.3 92 0.5 SSW 6 7 3 4 1022.4 1022.4 0.0
25/09:30pm 7.6 5.5 6.7 94 0.4 SSW 7 11 4 6 1022.3 1022.3 0.0
25/09:00pm 7.8 5.6 6.4 91 0.6 SSW 7 11 4 6 1022.3 1022.3 0.0
25/08:30pm 8.5 6.7 7.0 90 0.7 SSW 6 9 3 5 1022.3 1022.3 0.0
25/08:00pm 8.9 6.6 7.4 90 0.7 SSW 9 11 5 6 1022.3 1022.3 0.0
25/07:30pm 9.8 8.0 7.2 84 1.2 S 6 7 3 4 1022.3 1022.3 0.0
25/07:00pm 10.2 8.2 7.1 81 1.5 S 7 9 4 5 1022.1 1022.1 0.0
25/06:30pm 11.7 11.0 7.0 73 2.2 CALM 0 0 0 0 1021.8 1021.8 0.0
25/06:04pm 12.7 11.9 6.7 67 2.9 CALM 0 0 0 0 1021.6 1021.6 0.0
25/06:00pm 12.7 11.9 6.3 65 3.0 CALM 0 0 0 0 1021.6 1021.6 0.0
25/05:49pm 13.5 12.3 6.6 63 3.3 SSE 2 6 1 3 1021.5 1021.5 0.0
25/05:30pm 15.7 13.7 7.2 57 4.2 SE 7 11 4 6 1021.3 1021.3 0.0
25/05:00pm 16.9 14.2 5.8 48 5.4 ESE 9 13 5 7 1021.0 1021.0 0.0
25/04:30pm 20.2 18.6 4.3 35 7.7 NNE 2 7 1 4 1020.8 1020.8 0.0
25/04:00pm 20.4 17.3 1.3 28 8.7 NE 7 11 4 6 1020.8 1020.8 0.0
25/03:30pm 20.5 17.1 1.9 29 8.6 NE 9 13 5 7 1020.8 1020.8 0.0
25/03:00pm 21.0 18.7 2.8 30 8.5 N 4 9 2 5 1020.9 1020.9 0.0

Other Formats:

Comma delimited format used in spreadsheet applications
http://www.bom.gov.au/fwo/IDN60801/IDN60801.95570.axf

JavaScript Object Notation format (JSON) in row-major order
http://www.bom.gov.au/fwo/IDN60801/IDN60801.95570.json